sensor_id;sensor_type;location;lat;lon;timestamp;P1;durP1;ratioP1;P2;durP2;ratioP2
15555;SDS011;7879;48.660;9.116;2024-02-21T00:01:58;0.20;;;0.20;;
15555;SDS011;7879;48.660;9.116;2024-02-21T00:04:25;0.20;;;0.20;;
15555;SDS011;7879;48.660;9.116;2024-02-21T00:06:52;0.20;;;0.20;;
15555;SDS011;7879;48.660;9.116;2024-02-21T00:09:23;0.30;;;0.30;;
15555;SDS011;7879;48.660;9.116;2024-02-21T00:11:51;0.20;;;0.20;;
15555;SDS011;7879;48.660;9.116;2024-02-21T00:14:18;0.20;;;0.20;;
15555;SDS011;7879;48.660;9.116;2024-02-21T00:16:45;0.20;;;0.20;;
15555;SDS011;7879;48.660;9.116;2024-02-21T00:19:12;0.20;;;0.20;;
15555;SDS011;7879;48.660;9.116;2024-02-21T00:21:41;0.30;;;0.30;;
15555;SDS011;7879;48.660;9.116;2024-02-21T00:24:09;0.20;;;0.20;;
15555;SDS011;7879;48.660;9.116;2024-02-21T00:26:39;0.20;;;0.20;;
15555;SDS011;7879;48.660;9.116;2024-02-21T00:29:06;0.10;;;0.10;;
15555;SDS011;7879;48.660;9.116;2024-02-21T00:31:35;0.30;;;0.30;;
15555;SDS011;7879;48.660;9.116;2024-02-21T00:34:02;0.30;;;0.30;;
15555;SDS011;7879;48.660;9.116;2024-02-21T00:36:30;0.20;;;0.20;;
15555;SDS011;7879;48.660;9.116;2024-02-21T00:39:02;0.10;;;0.10;;
15555;SDS011;7879;48.660;9.116;2024-02-21T00:41:29;0.20;;;0.20;;
15555;SDS011;7879;48.660;9.116;2024-02-21T00:43:56;0.20;;;0.20;;
15555;SDS011;7879;48.660;9.116;2024-02-21T00:46:24;0.20;;;0.20;;
15555;SDS011;7879;48.660;9.116;2024-02-21T00:48:51;0.30;;;0.30;;
15555;SDS011;7879;48.660;9.116;2024-02-21T00:51:19;0.20;;;0.20;;
15555;SDS011;7879;48.660;9.116;2024-02-21T00:53:46;0.20;;;0.20;;
15555;SDS011;7879;48.660;9.116;2024-02-21T00:56:16;0.20;;;0.20;;
15555;SDS011;7879;48.660;9.116;2024-02-21T00:58:42;0.20;;;0.20;;
15555;SDS011;7879;48.660;9.116;2024-02-21T01:01:09;0.30;;;0.30;;
15555;SDS011;7879;48.660;9.116;2024-02-21T01:03:39;0.28;;;0.28;;
15555;SDS011;7879;48.660;9.116;2024-02-21T01:06:06;0.20;;;0.20;;
15555;SDS011;7879;48.660;9.116;2024-02-21T01:08:33;0.10;;;0.10;;
15555;SDS011;7879;48.660;9.116;2024-02-21T01:11:03;0.20;;;0.20;;
15555;SDS011;7879;48.660;9.116;2024-02-21T01:13:30;0.30;;;0.30;;
15555;SDS011;7879;48.660;9.116;2024-02-21T01:15:57;0.30;;;0.30;;
15555;SDS011;7879;48.660;9.116;2024-02-21T01:18:24;0.20;;;0.20;;
15555;SDS011;7879;48.660;9.116;2024-02-21T01:20:51;0.20;;;0.20;;
15555;SDS011;7879;48.660;9.116;2024-02-21T01:23:19;0.20;;;0.20;;
15555;SDS011;7879;48.660;9.116;2024-02-21T01:25:46;0.30;;;0.30;;
15555;SDS011;7879;48.660;9.116;2024-02-21T01:28:13;0.20;;;0.20;;
15555;SDS011;7879;48.660;9.116;2024-02-21T01:30:40;0.20;;;0.20;;
15555;SDS011;7879;48.660;9.116;2024-02-21T01:33:08;0.10;;;0.10;;
15555;SDS011;7879;48.660;9.116;2024-02-21T01:35:36;0.30;;;0.30;;
15555;SDS011;7879;48.660;9.116;2024-02-21T01:38:04;0.27;;;0.27;;
15555;SDS011;7879;48.660;9.116;2024-02-21T01:40:31;0.20;;;0.20;;
15555;SDS011;7879;48.660;9.116;2024-02-21T01:42:59;0.20;;;0.20;;
15555;SDS011;7879;48.660;9.116;2024-02-21T01:46:00;0.30;;;0.30;;
15555;SDS011;7879;48.660;9.116;2024-02-21T01:48:32;0.20;;;0.20;;
15555;SDS011;7879;48.660;9.116;2024-02-21T01:51:08;0.15;;;0.15;;
15555;SDS011;7879;48.660;9.116;2024-02-21T01:53:58;0.30;;;0.30;;
15555;SDS011;7879;48.660;9.116;2024-02-21T01:56:53;0.20;;;0.20;;
15555;SDS011;7879;48.660;9.116;2024-02-21T01:59:23;0.20;;;0.20;;
15555;SDS011;7879;48.660;9.116;2024-02-21T02:02:03;0.30;;;0.30;;
15555;SDS011;7879;48.660;9.116;2024-02-21T02:04:34;0.20;;;0.20;;
15555;SDS011;7879;48.660;9.116;2024-02-21T02:07:09;0.20;;;0.20;;
15555;SDS011;7879;48.660;9.116;2024-02-21T02:09:46;0.20;;;0.20;;
15555;SDS011;7879;48.660;9.116;2024-02-21T02:17:37;0.13;;;0.13;;
15555;SDS011;7879;48.660;9.116;2024-02-21T02:24:11;0.30;;;0.30;;
15555;SDS011;7879;48.660;9.116;2024-02-21T02:26:49;0.30;;;0.30;;
15555;SDS011;7879;48.660;9.116;2024-02-21T02:29:49;0.20;;;0.20;;
15555;SDS011;7879;48.660;9.116;2024-02-21T02:32:55;0.30;;;0.30;;
15555;SDS011;7879;48.660;9.116;2024-02-21T02:35:33;0.20;;;0.20;;
15555;SDS011;7879;48.660;9.116;2024-02-21T02:38:02;0.20;;;0.20;;
15555;SDS011;7879;48.660;9.116;2024-02-21T02:40:30;0.20;;;0.20;;
15555;SDS011;7879;48.660;9.116;2024-02-21T02:43:01;0.30;;;0.30;;
15555;SDS011;7879;48.660;9.116;2024-02-21T02:45:32;0.20;;;0.20;;
15555;SDS011;7879;48.660;9.116;2024-02-21T02:48:28;0.20;;;0.20;;
15555;SDS011;7879;48.660;9.116;2024-02-21T02:51:09;0.30;;;0.30;;
15555;SDS011;7879;48.660;9.116;2024-02-21T02:54:03;0.20;;;0.20;;
15555;SDS011;7879;48.660;9.116;2024-02-21T02:56:42;0.20;;;0.20;;
15555;SDS011;7879;48.660;9.116;2024-02-21T02:59:16;0.20;;;0.20;;
15555;SDS011;7879;48.660;9.116;2024-02-21T03:02:26;0.20;;;0.20;;
15555;SDS011;7879;48.660;9.116;2024-02-21T03:05:14;0.20;;;0.20;;
15555;SDS011;7879;48.660;9.116;2024-02-21T03:07:45;0.20;;;0.20;;
15555;SDS011;7879;48.660;9.116;2024-02-21T03:10:13;0.20;;;0.20;;
15555;SDS011;7879;48.660;9.116;2024-02-21T03:12:43;0.30;;;0.30;;
15555;SDS011;7879;48.660;9.116;2024-02-21T03:15:11;0.28;;;0.28;;
15555;SDS011;7879;48.660;9.116;2024-02-21T03:17:38;0.20;;;0.20;;
15555;SDS011;7879;48.660;9.116;2024-02-21T03:20:06;0.20;;;0.20;;
15555;SDS011;7879;48.660;9.116;2024-02-21T03:23:25;0.20;;;0.20;;
15555;SDS011;7879;48.660;9.116;2024-02-21T03:26:04;0.20;;;0.20;;
15555;SDS011;7879;48.660;9.116;2024-02-21T03:28:34;0.20;;;0.20;;
15555;SDS011;7879;48.660;9.116;2024-02-21T03:31:20;0.20;;;0.20;;
15555;SDS011;7879;48.660;9.116;2024-02-21T03:33:59;0.20;;;0.20;;
15555;SDS011;7879;48.660;9.116;2024-02-21T03:36:46;0.25;;;0.25;;
15555;SDS011;7879;48.660;9.116;2024-02-21T03:39:37;0.20;;;0.20;;
15555;SDS011;7879;48.660;9.116;2024-02-21T03:42:04;0.20;;;0.20;;
15555;SDS011;7879;48.660;9.116;2024-02-21T03:44:32;0.20;;;0.20;;
15555;SDS011;7879;48.660;9.116;2024-02-21T03:46:59;0.30;;;0.30;;
15555;SDS011;7879;48.660;9.116;2024-02-21T03:49:30;0.20;;;0.20;;
15555;SDS011;7879;48.660;9.116;2024-02-21T03:52:05;0.10;;;0.10;;
15555;SDS011;7879;48.660;9.116;2024-02-21T03:54:46;0.30;;;0.30;;
15555;SDS011;7879;48.660;9.116;2024-02-21T03:57:20;0.20;;;0.20;;
15555;SDS011;7879;48.660;9.116;2024-02-21T04:00:28;0.20;;;0.20;;
15555;SDS011;7879;48.660;9.116;2024-02-21T04:03:12;0.20;;;0.20;;
15555;SDS011;7879;48.660;9.116;2024-02-21T04:05:39;0.20;;;0.20;;
15555;SDS011;7879;48.660;9.116;2024-02-21T04:08:06;0.20;;;0.20;;
15555;SDS011;7879;48.660;9.116;2024-02-21T04:10:43;0.30;;;0.30;;
15555;SDS011;7879;48.660;9.116;2024-02-21T04:13:10;0.20;;;0.20;;
15555;SDS011;7879;48.660;9.116;2024-02-21T04:15:37;0.20;;;0.20;;
15555;SDS011;7879;48.660;9.116;2024-02-21T04:18:05;0.20;;;0.20;;
15555;SDS011;7879;48.660;9.116;2024-02-21T04:20:33;0.20;;;0.20;;
15555;SDS011;7879;48.660;9.116;2024-02-21T04:23:09;0.20;;;0.20;;
15555;SDS011;7879;48.660;9.116;2024-02-21T04:25:51;0.20;;;0.20;;
15555;SDS011;7879;48.660;9.116;2024-02-21T04:28:35;0.30;;;0.30;;
15555;SDS011;7879;48.660;9.116;2024-02-21T04:31:02;0.20;;;0.20;;
15555;SDS011;7879;48.660;9.116;2024-02-21T04:33:29;0.20;;;0.20;;
15555;SDS011;7879;48.660;9.116;2024-02-21T04:36:07;0.10;;;0.10;;
15555;SDS011;7879;48.660;9.116;2024-02-21T04:38:46;0.20;;;0.20;;
15555;SDS011;7879;48.660;9.116;2024-02-21T04:41:13;0.20;;;0.20;;
15555;SDS011;7879;48.660;9.116;2024-02-21T04:43:47;0.20;;;0.20;;
15555;SDS011;7879;48.660;9.116;2024-02-21T04:46:14;0.10;;;0.10;;
15555;SDS011;7879;48.660;9.116;2024-02-21T04:48:42;0.20;;;0.20;;
15555;SDS011;7879;48.660;9.116;2024-02-21T04:51:11;0.30;;;0.30;;
15555;SDS011;7879;48.660;9.116;2024-02-21T04:53:39;0.20;;;0.20;;
15555;SDS011;7879;48.660;9.116;2024-02-21T04:56:06;0.20;;;0.20;;
15555;SDS011;7879;48.660;9.116;2024-02-21T04:58:33;0.20;;;0.20;;
15555;SDS011;7879;48.660;9.116;2024-02-21T05:01:13;0.25;;;0.25;;
15555;SDS011;7879;48.660;9.116;2024-02-21T05:03:41;0.30;;;0.30;;
15555;SDS011;7879;48.660;9.116;2024-02-21T05:06:13;0.22;;;0.22;;
15555;SDS011;7879;48.660;9.116;2024-02-21T05:08:40;0.20;;;0.20;;
15555;SDS011;7879;48.660;9.116;2024-02-21T05:11:10;0.20;;;0.20;;
15555;SDS011;7879;48.660;9.116;2024-02-21T05:13:40;0.20;;;0.20;;
15555;SDS011;7879;48.660;9.116;2024-02-21T05:16:08;0.20;;;0.20;;
15555;SDS011;7879;48.660;9.116;2024-02-21T05:18:35;0.30;;;0.30;;
15555;SDS011;7879;48.660;9.116;2024-02-21T05:21:02;0.30;;;0.30;;
15555;SDS011;7879;48.660;9.116;2024-02-21T05:23:29;0.30;;;0.30;;
15555;SDS011;7879;48.660;9.116;2024-02-21T05:25:56;0.30;;;0.30;;
15555;SDS011;7879;48.660;9.116;2024-02-21T05:28:24;0.30;;;0.30;;
15555;SDS011;7879;48.660;9.116;2024-02-21T05:30:51;0.30;;;0.30;;
15555;SDS011;7879;48.660;9.116;2024-02-21T05:33:18;0.20;;;0.20;;
15555;SDS011;7879;48.660;9.116;2024-02-21T05:35:48;0.20;;;0.20;;
15555;SDS011;7879;48.660;9.116;2024-02-21T05:38:15;0.20;;;0.20;;
15555;SDS011;7879;48.660;9.116;2024-02-21T05:40:44;0.20;;;0.20;;
15555;SDS011;7879;48.660;9.116;2024-02-21T05:43:11;0.28;;;0.28;;
15555;SDS011;7879;48.660;9.116;2024-02-21T05:45:39;0.30;;;0.30;;
15555;SDS011;7879;48.660;9.116;2024-02-21T05:48:06;0.30;;;0.30;;
15555;SDS011;7879;48.660;9.116;2024-02-21T05:50:33;0.20;;;0.20;;
15555;SDS011;7879;48.660;9.116;2024-02-21T05:53:00;0.20;;;0.20;;
15555;SDS011;7879;48.660;9.116;2024-02-21T05:55:28;0.20;;;0.20;;
15555;SDS011;7879;48.660;9.116;2024-02-21T05:57:55;0.20;;;0.20;;
15555;SDS011;7879;48.660;9.116;2024-02-21T06:00:22;0.30;;;0.30;;
15555;SDS011;7879;48.660;9.116;2024-02-21T06:02:49;0.30;;;0.30;;
15555;SDS011;7879;48.660;9.116;2024-02-21T06:05:16;0.30;;;0.30;;
15555;SDS011;7879;48.660;9.116;2024-02-21T06:07:43;0.30;;;0.30;;
15555;SDS011;7879;48.660;9.116;2024-02-21T06:10:10;0.20;;;0.20;;
15555;SDS011;7879;48.660;9.116;2024-02-21T06:12:37;0.20;;;0.20;;
15555;SDS011;7879;48.660;9.116;2024-02-21T06:15:10;0.20;;;0.20;;
15555;SDS011;7879;48.660;9.116;2024-02-21T06:17:40;0.28;;;0.28;;
15555;SDS011;7879;48.660;9.116;2024-02-21T06:20:10;0.20;;;0.20;;
15555;SDS011;7879;48.660;9.116;2024-02-21T06:22:40;0.20;;;0.20;;
15555;SDS011;7879;48.660;9.116;2024-02-21T06:25:10;0.20;;;0.20;;
15555;SDS011;7879;48.660;9.116;2024-02-21T06:27:40;0.20;;;0.20;;
15555;SDS011;7879;48.660;9.116;2024-02-21T06:30:07;0.30;;;0.30;;
15555;SDS011;7879;48.660;9.116;2024-02-21T06:32:35;0.30;;;0.30;;
15555;SDS011;7879;48.660;9.116;2024-02-21T06:35:02;0.30;;;0.30;;
15555;SDS011;7879;48.660;9.116;2024-02-21T06:37:30;0.30;;;0.30;;
15555;SDS011;7879;48.660;9.116;2024-02-21T06:39:58;0.20;;;0.20;;
15555;SDS011;7879;48.660;9.116;2024-02-21T06:42:25;0.20;;;0.20;;
15555;SDS011;7879;48.660;9.116;2024-02-21T06:44:52;0.30;;;0.30;;
15555;SDS011;7879;48.660;9.116;2024-02-21T06:47:19;0.20;;;0.20;;
15555;SDS011;7879;48.660;9.116;2024-02-21T06:49:50;0.20;;;0.20;;
15555;SDS011;7879;48.660;9.116;2024-02-21T06:52:18;0.20;;;0.20;;
15555;SDS011;7879;48.660;9.116;2024-02-21T06:54:49;0.20;;;0.20;;
15555;SDS011;7879;48.660;9.116;2024-02-21T06:57:16;0.30;;;0.30;;
15555;SDS011;7879;48.660;9.116;2024-02-21T06:59:50;0.30;;;0.30;;
15555;SDS011;7879;48.660;9.116;2024-02-21T07:02:17;0.30;;;0.30;;
15555;SDS011;7879;48.660;9.116;2024-02-21T07:04:45;0.30;;;0.30;;
15555;SDS011;7879;48.660;9.116;2024-02-21T07:07:15;0.30;;;0.30;;
15555;SDS011;7879;48.660;9.116;2024-02-21T07:09:44;0.20;;;0.20;;
15555;SDS011;7879;48.660;9.116;2024-02-21T07:12:17;0.20;;;0.20;;
15555;SDS011;7879;48.660;9.116;2024-02-21T07:14:45;0.20;;;0.20;;
15555;SDS011;7879;48.660;9.116;2024-02-21T07:17:12;0.20;;;0.20;;
15555;SDS011;7879;48.660;9.116;2024-02-21T07:19:39;0.20;;;0.20;;
15555;SDS011;7879;48.660;9.116;2024-02-21T07:22:06;0.30;;;0.30;;
15555;SDS011;7879;48.660;9.116;2024-02-21T07:24:33;0.30;;;0.30;;
15555;SDS011;7879;48.660;9.116;2024-02-21T07:27:10;0.30;;;0.30;;
15555;SDS011;7879;48.660;9.116;2024-02-21T07:29:37;0.22;;;0.22;;
15555;SDS011;7879;48.660;9.116;2024-02-21T07:32:04;0.20;;;0.20;;
15555;SDS011;7879;48.660;9.116;2024-02-21T07:34:31;0.20;;;0.20;;
15555;SDS011;7879;48.660;9.116;2024-02-21T07:36:58;0.30;;;0.30;;
15555;SDS011;7879;48.660;9.116;2024-02-21T07:39:25;0.30;;;0.30;;
15555;SDS011;7879;48.660;9.116;2024-02-21T07:41:52;0.20;;;0.20;;
15555;SDS011;7879;48.660;9.116;2024-02-21T07:44:19;0.20;;;0.20;;
15555;SDS011;7879;48.660;9.116;2024-02-21T07:46:46;0.10;;;0.10;;
15555;SDS011;7879;48.660;9.116;2024-02-21T07:49:13;0.22;;;0.22;;
15555;SDS011;7879;48.660;9.116;2024-02-21T07:51:40;0.20;;;0.20;;
15555;SDS011;7879;48.660;9.116;2024-02-21T07:54:08;0.20;;;0.20;;
15555;SDS011;7879;48.660;9.116;2024-02-21T07:56:39;0.20;;;0.20;;
15555;SDS011;7879;48.660;9.116;2024-02-21T07:59:06;0.30;;;0.30;;
15555;SDS011;7879;48.660;9.116;2024-02-21T08:01:34;0.20;;;0.20;;
15555;SDS011;7879;48.660;9.116;2024-02-21T08:04:01;0.10;;;0.10;;
15555;SDS011;7879;48.660;9.116;2024-02-21T08:06:30;0.20;;;0.20;;
15555;SDS011;7879;48.660;9.116;2024-02-21T08:08:58;0.20;;;0.20;;
15555;SDS011;7879;48.660;9.116;2024-02-21T08:11:27;0.10;;;0.10;;
15555;SDS011;7879;48.660;9.116;2024-02-21T08:13:54;0.22;;;0.22;;
15555;SDS011;7879;48.660;9.116;2024-02-21T08:16:21;0.20;;;0.20;;
15555;SDS011;7879;48.660;9.116;2024-02-21T08:18:48;0.20;;;0.20;;
15555;SDS011;7879;48.660;9.116;2024-02-21T08:21:15;0.20;;;0.20;;
15555;SDS011;7879;48.660;9.116;2024-02-21T08:23:42;0.10;;;0.10;;
15555;SDS011;7879;48.660;9.116;2024-02-21T08:26:10;0.25;;;0.25;;
15555;SDS011;7879;48.660;9.116;2024-02-21T08:28:38;0.20;;;0.20;;
15555;SDS011;7879;48.660;9.116;2024-02-21T08:31:05;0.17;;;0.17;;
15555;SDS011;7879;48.660;9.116;2024-02-21T08:33:31;0.20;;;0.20;;
15555;SDS011;7879;48.660;9.116;2024-02-21T08:35:59;0.10;;;0.10;;
15555;SDS011;7879;48.660;9.116;2024-02-21T08:38:25;0.20;;;0.20;;
15555;SDS011;7879;48.660;9.116;2024-02-21T08:40:52;0.10;;;0.10;;
15555;SDS011;7879;48.660;9.116;2024-02-21T08:43:19;0.20;;;0.20;;
15555;SDS011;7879;48.660;9.116;2024-02-21T08:45:46;0.10;;;0.10;;
15555;SDS011;7879;48.660;9.116;2024-02-21T08:48:13;0.20;;;0.20;;
15555;SDS011;7879;48.660;9.116;2024-02-21T08:50:40;0.10;;;0.10;;
15555;SDS011;7879;48.660;9.116;2024-02-21T08:53:07;0.20;;;0.20;;
15555;SDS011;7879;48.660;9.116;2024-02-21T08:55:34;0.10;;;0.10;;
15555;SDS011;7879;48.660;9.116;2024-02-21T08:58:02;0.20;;;0.20;;
15555;SDS011;7879;48.660;9.116;2024-02-21T09:00:30;0.17;;;0.17;;
15555;SDS011;7879;48.660;9.116;2024-02-21T09:02:57;0.10;;;0.10;;
15555;SDS011;7879;48.660;9.116;2024-02-21T09:05:24;0.10;;;0.10;;
15555;SDS011;7879;48.660;9.116;2024-02-21T09:07:52;0.20;;;0.20;;
15555;SDS011;7879;48.660;9.116;2024-02-21T09:10:19;0.10;;;0.10;;
15555;SDS011;7879;48.660;9.116;2024-02-21T09:12:47;0.10;;;0.10;;
15555;SDS011;7879;48.660;9.116;2024-02-21T09:15:14;0.20;;;0.20;;
15555;SDS011;7879;48.660;9.116;2024-02-21T09:17:40;0.10;;;0.10;;
15555;SDS011;7879;48.660;9.116;2024-02-21T09:20:07;0.10;;;0.10;;
15555;SDS011;7879;48.660;9.116;2024-02-21T09:22:38;0.10;;;0.10;;
15555;SDS011;7879;48.660;9.116;2024-02-21T09:25:06;0.10;;;0.10;;
15555;SDS011;7879;48.660;9.116;2024-02-21T09:27:33;0.10;;;0.10;;
15555;SDS011;7879;48.660;9.116;2024-02-21T09:30:00;0.17;;;0.17;;
15555;SDS011;7879;48.660;9.116;2024-02-21T09:32:28;0.10;;;0.10;;
15555;SDS011;7879;48.660;9.116;2024-02-21T09:34:55;0.10;;;0.10;;
15555;SDS011;7879;48.660;9.116;2024-02-21T09:37:27;0.20;;;0.20;;
15555;SDS011;7879;48.660;9.116;2024-02-21T09:39:54;0.10;;;0.10;;
15555;SDS011;7879;48.660;9.116;2024-02-21T09:42:21;0.10;;;0.10;;
15555;SDS011;7879;48.660;9.116;2024-02-21T09:44:48;0.10;;;0.10;;
15555;SDS011;7879;48.660;9.116;2024-02-21T09:49:48;0.10;;;0.10;;
15555;SDS011;7879;48.660;9.116;2024-02-21T09:52:15;0.10;;;0.10;;
15555;SDS011;7879;48.660;9.116;2024-02-21T09:54:43;0.10;;;0.10;;
15555;SDS011;7879;48.660;9.116;2024-02-21T09:57:11;0.10;;;0.10;;
15555;SDS011;7879;48.660;9.116;2024-02-21T09:59:39;0.10;;;0.10;;
15555;SDS011;7879;48.660;9.116;2024-02-21T10:02:08;0.10;;;0.10;;
15555;SDS011;7879;48.660;9.116;2024-02-21T10:04:35;0.10;;;0.10;;
15555;SDS011;7879;48.660;9.116;2024-02-21T10:07:03;0.10;;;0.10;;
15555;SDS011;7879;48.660;9.116;2024-02-21T10:09:30;0.10;;;0.10;;
15555;SDS011;7879;48.660;9.116;2024-02-21T10:12:08;0.10;;;0.10;;
15555;SDS011;7879;48.660;9.116;2024-02-21T10:14:37;0.07;;;0.07;;
15555;SDS011;7879;48.660;9.116;2024-02-21T10:17:04;0.05;;;0.05;;
15555;SDS011;7879;48.660;9.116;2024-02-21T10:19:37;0.10;;;0.10;;
15555;SDS011;7879;48.660;9.116;2024-02-21T10:22:07;0.10;;;0.10;;
15555;SDS011;7879;48.660;9.116;2024-02-21T10:24:35;0.10;;;0.10;;
15555;SDS011;7879;48.660;9.116;2024-02-21T10:27:06;0.10;;;0.10;;
15555;SDS011;7879;48.660;9.116;2024-02-21T10:29:40;0.10;;;0.10;;
15555;SDS011;7879;48.660;9.116;2024-02-21T10:32:11;0.03;;;0.03;;
15555;SDS011;7879;48.660;9.116;2024-02-21T10:34:40;0.00;;;0.00;;
15555;SDS011;7879;48.660;9.116;2024-02-21T10:37:09;0.10;;;0.10;;
15555;SDS011;7879;48.660;9.116;2024-02-21T10:39:40;0.07;;;0.07;;
15555;SDS011;7879;48.660;9.116;2024-02-21T10:42:10;0.00;;;0.00;;
15555;SDS011;7879;48.660;9.116;2024-02-21T10:44:39;0.00;;;0.00;;
15555;SDS011;7879;48.660;9.116;2024-02-21T10:47:08;0.08;;;0.08;;
15555;SDS011;7879;48.660;9.116;2024-02-21T10:49:38;0.00;;;0.00;;
15555;SDS011;7879;48.660;9.116;2024-02-21T10:52:13;0.00;;;0.00;;
15555;SDS011;7879;48.660;9.116;2024-02-21T10:57:27;0.10;;;0.10;;
15555;SDS011;7879;48.660;9.116;2024-02-21T10:59:55;0.00;;;0.00;;
15555;SDS011;7879;48.660;9.116;2024-02-21T11:02:25;0.10;;;0.10;;
15555;SDS011;7879;48.660;9.116;2024-02-21T11:04:55;0.00;;;0.00;;
15555;SDS011;7879;48.660;9.116;2024-02-21T11:07:23;0.00;;;0.00;;
15555;SDS011;7879;48.660;9.116;2024-02-21T11:09:50;0.00;;;0.00;;
15555;SDS011;7879;48.660;9.116;2024-02-21T11:12:22;0.00;;;0.00;;
15555;SDS011;7879;48.660;9.116;2024-02-21T11:14:50;0.00;;;0.00;;
15555;SDS011;7879;48.660;9.116;2024-02-21T11:17:18;0.00;;;0.00;;
15555;SDS011;7879;48.660;9.116;2024-02-21T11:19:53;0.00;;;0.00;;
15555;SDS011;7879;48.660;9.116;2024-02-21T11:22:20;0.00;;;0.00;;
15555;SDS011;7879;48.660;9.116;2024-02-21T11:24:51;0.00;;;0.00;;
15555;SDS011;7879;48.660;9.116;2024-02-21T11:27:20;0.00;;;0.00;;
15555;SDS011;7879;48.660;9.116;2024-02-21T11:29:49;0.00;;;0.00;;
15555;SDS011;7879;48.660;9.116;2024-02-21T11:32:20;0.00;;;0.00;;
15555;SDS011;7879;48.660;9.116;2024-02-21T11:34:55;0.10;;;0.10;;
15555;SDS011;7879;48.660;9.116;2024-02-21T11:37:34;0.10;;;0.10;;
15555;SDS011;7879;48.660;9.116;2024-02-21T11:40:06;0.10;;;0.10;;
15555;SDS011;7879;48.660;9.116;2024-02-21T11:42:38;0.10;;;0.10;;
15555;SDS011;7879;48.660;9.116;2024-02-21T11:45:05;0.10;;;0.10;;
15555;SDS011;7879;48.660;9.116;2024-02-21T11:47:35;0.10;;;0.10;;
15555;SDS011;7879;48.660;9.116;2024-02-21T11:50:09;0.10;;;0.10;;
15555;SDS011;7879;48.660;9.116;2024-02-21T11:52:37;0.10;;;0.10;;
15555;SDS011;7879;48.660;9.116;2024-02-21T11:55:04;0.10;;;0.10;;
15555;SDS011;7879;48.660;9.116;2024-02-21T11:57:36;0.10;;;0.10;;
15555;SDS011;7879;48.660;9.116;2024-02-21T12:00:12;0.10;;;0.10;;
15555;SDS011;7879;48.660;9.116;2024-02-21T12:02:41;0.10;;;0.10;;
15555;SDS011;7879;48.660;9.116;2024-02-21T12:05:08;0.10;;;0.10;;
15555;SDS011;7879;48.660;9.116;2024-02-21T12:07:38;0.10;;;0.10;;
15555;SDS011;7879;48.660;9.116;2024-02-21T12:10:10;0.10;;;0.10;;
15555;SDS011;7879;48.660;9.116;2024-02-21T12:12:40;0.10;;;0.10;;
15555;SDS011;7879;48.660;9.116;2024-02-21T12:15:07;0.10;;;0.10;;
15555;SDS011;7879;48.660;9.116;2024-02-21T12:17:36;0.10;;;0.10;;
15555;SDS011;7879;48.660;9.116;2024-02-21T12:20:06;0.10;;;0.10;;
15555;SDS011;7879;48.660;9.116;2024-02-21T12:22:42;0.10;;;0.10;;
15555;SDS011;7879;48.660;9.116;2024-02-21T12:25:18;0.10;;;0.10;;
15555;SDS011;7879;48.660;9.116;2024-02-21T12:27:50;0.10;;;0.10;;
15555;SDS011;7879;48.660;9.116;2024-02-21T12:30:17;0.10;;;0.10;;
15555;SDS011;7879;48.660;9.116;2024-02-21T12:32:46;0.10;;;0.10;;
15555;SDS011;7879;48.660;9.116;2024-02-21T12:35:15;0.10;;;0.10;;
15555;SDS011;7879;48.660;9.116;2024-02-21T12:37:43;0.10;;;0.10;;
15555;SDS011;7879;48.660;9.116;2024-02-21T12:40:10;0.10;;;0.10;;
15555;SDS011;7879;48.660;9.116;2024-02-21T12:42:37;0.10;;;0.10;;
15555;SDS011;7879;48.660;9.116;2024-02-21T12:45:05;0.10;;;0.10;;
15555;SDS011;7879;48.660;9.116;2024-02-21T12:47:32;0.10;;;0.10;;
15555;SDS011;7879;48.660;9.116;2024-02-21T12:49:59;0.10;;;0.10;;
15555;SDS011;7879;48.660;9.116;2024-02-21T12:52:26;0.10;;;0.10;;
15555;SDS011;7879;48.660;9.116;2024-02-21T12:54:53;0.10;;;0.10;;
15555;SDS011;7879;48.660;9.116;2024-02-21T12:57:23;0.10;;;0.10;;
15555;SDS011;7879;48.660;9.116;2024-02-21T12:59:53;0.10;;;0.10;;
15555;SDS011;7879;48.660;9.116;2024-02-21T13:02:20;0.10;;;0.10;;
15555;SDS011;7879;48.660;9.116;2024-02-21T13:04:47;0.10;;;0.10;;
15555;SDS011;7879;48.660;9.116;2024-02-21T13:07:15;0.10;;;0.10;;
15555;SDS011;7879;48.660;9.116;2024-02-21T13:09:42;0.10;;;0.10;;
15555;SDS011;7879;48.660;9.116;2024-02-21T13:12:09;0.10;;;0.10;;
15555;SDS011;7879;48.660;9.116;2024-02-21T13:14:36;0.10;;;0.10;;
15555;SDS011;7879;48.660;9.116;2024-02-21T13:17:05;0.10;;;0.10;;
15555;SDS011;7879;48.660;9.116;2024-02-21T13:19:33;0.10;;;0.10;;
15555;SDS011;7879;48.660;9.116;2024-02-21T13:22:00;0.10;;;0.10;;
15555;SDS011;7879;48.660;9.116;2024-02-21T13:24:29;0.10;;;0.10;;
15555;SDS011;7879;48.660;9.116;2024-02-21T13:26:58;0.10;;;0.10;;
15555;SDS011;7879;48.660;9.116;2024-02-21T13:29:25;0.10;;;0.10;;
15555;SDS011;7879;48.660;9.116;2024-02-21T13:31:52;0.10;;;0.10;;
15555;SDS011;7879;48.660;9.116;2024-02-21T13:34:20;0.10;;;0.10;;
15555;SDS011;7879;48.660;9.116;2024-02-21T13:36:47;0.10;;;0.10;;
15555;SDS011;7879;48.660;9.116;2024-02-21T13:39:14;0.10;;;0.10;;
15555;SDS011;7879;48.660;9.116;2024-02-21T13:41:42;0.10;;;0.10;;
15555;SDS011;7879;48.660;9.116;2024-02-21T13:44:10;0.10;;;0.10;;
15555;SDS011;7879;48.660;9.116;2024-02-21T13:46:39;0.10;;;0.10;;
15555;SDS011;7879;48.660;9.116;2024-02-21T13:49:06;0.10;;;0.10;;
15555;SDS011;7879;48.660;9.116;2024-02-21T13:51:33;0.10;;;0.10;;
15555;SDS011;7879;48.660;9.116;2024-02-21T13:54:04;0.10;;;0.10;;
15555;SDS011;7879;48.660;9.116;2024-02-21T13:56:31;0.10;;;0.10;;
15555;SDS011;7879;48.660;9.116;2024-02-21T13:58:59;0.10;;;0.10;;
15555;SDS011;7879;48.660;9.116;2024-02-21T14:01:29;0.10;;;0.10;;
15555;SDS011;7879;48.660;9.116;2024-02-21T14:03:58;0.10;;;0.10;;
15555;SDS011;7879;48.660;9.116;2024-02-21T14:06:28;0.10;;;0.10;;
15555;SDS011;7879;48.660;9.116;2024-02-21T14:08:55;0.10;;;0.10;;
15555;SDS011;7879;48.660;9.116;2024-02-21T14:11:22;0.10;;;0.10;;
15555;SDS011;7879;48.660;9.116;2024-02-21T14:13:50;0.10;;;0.10;;
15555;SDS011;7879;48.660;9.116;2024-02-21T14:16:18;0.10;;;0.10;;
15555;SDS011;7879;48.660;9.116;2024-02-21T14:18:48;0.10;;;0.10;;
15555;SDS011;7879;48.660;9.116;2024-02-21T14:21:15;0.10;;;0.10;;
15555;SDS011;7879;48.660;9.116;2024-02-21T14:23:42;0.10;;;0.10;;
15555;SDS011;7879;48.660;9.116;2024-02-21T14:26:09;0.10;;;0.10;;
15555;SDS011;7879;48.660;9.116;2024-02-21T14:28:36;0.10;;;0.10;;
15555;SDS011;7879;48.660;9.116;2024-02-21T14:31:03;0.10;;;0.10;;
15555;SDS011;7879;48.660;9.116;2024-02-21T14:33:32;0.10;;;0.10;;
15555;SDS011;7879;48.660;9.116;2024-02-21T14:35:59;0.10;;;0.10;;
15555;SDS011;7879;48.660;9.116;2024-02-21T14:38:26;0.10;;;0.10;;
15555;SDS011;7879;48.660;9.116;2024-02-21T14:40:54;0.10;;;0.10;;
15555;SDS011;7879;48.660;9.116;2024-02-21T14:43:21;0.10;;;0.10;;
15555;SDS011;7879;48.660;9.116;2024-02-21T14:45:48;0.10;;;0.10;;
15555;SDS011;7879;48.660;9.116;2024-02-21T14:48:15;0.10;;;0.10;;
15555;SDS011;7879;48.660;9.116;2024-02-21T14:50:43;0.10;;;0.10;;
15555;SDS011;7879;48.660;9.116;2024-02-21T14:53:10;0.10;;;0.10;;
15555;SDS011;7879;48.660;9.116;2024-02-21T14:55:37;0.10;;;0.10;;
15555;SDS011;7879;48.660;9.116;2024-02-21T14:58:07;0.10;;;0.10;;
15555;SDS011;7879;48.660;9.116;2024-02-21T15:00:34;0.10;;;0.10;;
15555;SDS011;7879;48.660;9.116;2024-02-21T15:03:01;0.10;;;0.10;;
15555;SDS011;7879;48.660;9.116;2024-02-21T15:05:29;0.10;;;0.10;;
15555;SDS011;7879;48.660;9.116;2024-02-21T15:07:56;0.10;;;0.10;;
15555;SDS011;7879;48.660;9.116;2024-02-21T15:10:26;0.10;;;0.10;;
15555;SDS011;7879;48.660;9.116;2024-02-21T15:12:53;0.10;;;0.10;;
15555;SDS011;7879;48.660;9.116;2024-02-21T15:15:20;0.10;;;0.10;;
15555;SDS011;7879;48.660;9.116;2024-02-21T15:17:47;0.10;;;0.10;;
15555;SDS011;7879;48.660;9.116;2024-02-21T15:20:15;0.10;;;0.10;;
15555;SDS011;7879;48.660;9.116;2024-02-21T15:22:42;0.10;;;0.10;;
15555;SDS011;7879;48.660;9.116;2024-02-21T15:25:09;0.10;;;0.10;;
15555;SDS011;7879;48.660;9.116;2024-02-21T15:27:42;0.10;;;0.10;;
15555;SDS011;7879;48.660;9.116;2024-02-21T15:30:12;0.10;;;0.10;;
15555;SDS011;7879;48.660;9.116;2024-02-21T15:32:40;0.10;;;0.10;;